Time;durP1;ratioP1;P1;durP2;ratioP2;P2;SDS_P1;SDS_P2;PMS_P1;PMS_P2;Temp;Humidity;BMP_temperature;BMP_pressure;BME280_temperature;BME280_humidity;BME280_pressure;Samples;Min_cycle;Max_cycle;Signal;HPM_P1;HPM_P2
2021/12/22 00:00:07;;;;;;;18.13;8.50;;;;;;;2.91;79.54;101581.81;4992741;28;20057;-84
2021/12/22 00:02:36;;;;;;;14.90;7.78;;;;;;;2.74;79.82;101580.53;4993230;28;20061;-84
2021/12/22 00:05:04;;;;;;;17.52;8.25;;;;;;;2.61;80.57;101595.66;4992770;28;20050;-84
2021/12/22 00:07:32;;;;;;;14.55;8.07;;;;;;;2.48;81.20;101592.88;4993000;28;20046;-84
2021/12/22 00:10:00;;;;;;;16.05;8.25;;;;;;;2.30;82.15;101586.16;4995592;28;20404;-84
2021/12/22 00:12:28;;;;;;;16.13;8.60;;;;;;;2.33;83.28;101601.94;4996952;28;20039;-84
2021/12/22 00:14:56;;;;;;;11.77;7.63;;;;;;;2.44;81.81;101589.72;4995394;28;20034;-85
2021/12/22 00:17:23;;;;;;;14.98;8.65;;;;;;;2.48;82.40;101590.16;4997221;28;20051;-84
2021/12/22 00:19:51;;;;;;;14.02;8.70;;;;;;;2.47;81.62;101583.94;4996977;28;20050;-85
2021/12/22 00:22:19;;;;;;;14.57;7.80;;;;;;;2.44;82.40;101583.50;4996346;28;20400;-85
2021/12/22 00:24:47;;;;;;;14.15;8.52;;;;;;;2.35;82.61;101578.25;4997147;28;20046;-85
2021/12/22 00:27:15;;;;;;;16.13;9.10;;;;;;;2.30;82.29;101582.63;4997001;28;20074;-85
2021/12/22 00:29:47;;;;;;;12.88;8.27;;;;;;;2.27;82.71;101578.44;4998280;28;20043;-84
2021/12/22 00:32:17;;;;;;;17.13;8.35;;;;;;;2.23;83.37;101575.31;4996827;28;20042;-85
2021/12/22 00:34:52;;;;;;;15.68;8.43;;;;;;;2.21;83.13;101576.53;4996631;28;20493;-84
2021/12/22 00:37:26;;;;;;;20.42;8.80;;;;;;;2.21;82.70;101577.38;4996801;28;20508;-84
2021/12/22 00:39:56;;;;;;;19.60;8.43;;;;;;;2.24;82.89;101578.81;4996879;28;20069;-84
2021/12/22 00:42:24;;;;;;;13.93;8.88;;;;;;;2.36;82.58;101579.09;4996428;28;20038;-85
2021/12/22 00:44:54;;;;;;;18.52;8.95;;;;;;;2.47;83.30;101575.84;4996199;28;20042;-84
2021/12/22 00:47:27;;;;;;;20.33;10.15;;;;;;;2.42;83.05;101570.19;4994966;28;20039;-84
2021/12/22 00:49:56;;;;;;;15.13;8.65;;;;;;;2.26;84.06;101568.66;4977845;28;20046;-84
2021/12/22 00:52:25;;;;;;;15.07;9.15;;;;;;;2.23;83.62;101569.91;4991233;28;20523;-85
2021/12/22 00:54:53;;;;;;;19.02;9.80;;;;;;;2.18;84.74;101561.56;4996352;28;20041;-84
2021/12/22 00:57:22;;;;;;;21.45;10.05;;;;;;;2.10;85.42;101562.56;4996254;28;20397;-85
2021/12/22 00:59:50;;;;;;;18.15;9.30;;;;;;;1.92;86.56;101568.47;4996588;28;20049;-85
2021/12/22 01:02:19;;;;;;;21.25;10.73;;;;;;;1.89;87.14;101563.47;4994505;28;20042;-84
2021/12/22 01:04:47;;;;;;;21.35;9.88;;;;;;;1.89;87.08;101555.34;4995926;28;20050;-84
2021/12/22 01:07:15;;;;;;;17.70;9.52;;;;;;;1.88;87.62;101561.78;4996057;28;20417;-85
2021/12/22 01:09:44;;;;;;;17.27;9.63;;;;;;;1.80;88.73;101565.47;4995967;28;20034;-84
2021/12/22 01:12:12;;;;;;;17.85;10.13;;;;;;;1.73;89.40;101559.19;4996340;28;20047;-84
2021/12/22 01:14:41;;;;;;;23.90;11.02;;;;;;;1.69;89.83;101574.09;5002178;28;20400;-84
2021/12/22 01:17:12;;;;;;;18.20;10.40;;;;;;;1.63;90.23;101574.88;4994887;28;20050;-84
2021/12/22 01:25:21;;;;;;;21.42;10.07;;;;;;;1.74;90.70;101577.06;4904549;29;20057;-84
2021/12/22 01:27:49;;;;;;;22.60;10.25;;;;;;;1.64;91.19;101576.56;4982744;28;20046;-84
2021/12/22 01:30:21;;;;;;;19.00;10.85;;;;;;;1.57;92.08;101576.53;4995573;28;20113;-84
2021/12/22 01:32:52;;;;;;;22.67;10.57;;;;;;;1.45;92.59;101577.03;4994588;28;20057;-84
2021/12/22 01:35:23;;;;;;;18.25;9.48;;;;;;;1.41;92.88;101569.53;4995535;28;20050;-84
2021/12/22 01:37:52;;;;;;;26.15;10.68;;;;;;;1.28;93.99;101568.38;5000763;28;20043;-84
2021/12/22 01:40:21;;;;;;;19.40;10.95;;;;;;;1.15;94.15;101574.50;4994698;28;20046;-84
2021/12/22 01:42:51;;;;;;;20.02;10.50;;;;;;;1.06;94.38;101568.38;4995192;28;20046;-84
2021/12/22 01:51:35;;;;;;;19.02;10.40;;;;;;;1.41;91.52;101580.34;4994959;28;20054;-84
2021/12/22 01:54:11;;;;;;;19.77;10.30;;;;;;;1.25;92.14;101584.09;4995506;28;20042;-84
2021/12/22 01:56:42;;;;;;;23.02;11.50;;;;;;;1.06;92.91;101576.47;4995781;28;20039;-84
2021/12/22 01:59:11;;;;;;;20.65;10.98;;;;;;;0.90;93.86;101587.50;4996738;28;20053;-84
2021/12/22 02:01:40;;;;;;;22.33;10.27;;;;;;;0.88;94.62;101584.16;4993784;28;20053;-84
2021/12/22 02:04:11;;;;;;;18.90;9.85;;;;;;;0.76;95.14;101592.72;4988049;28;20051;-84
2021/12/22 02:06:44;;;;;;;16.48;9.57;;;;;;;0.68;95.51;101594.69;4987548;28;20043;-84
2021/12/22 02:09:39;;;;;;;19.42;11.05;;;;;;;0.61;96.13;101594.59;4979828;28;20053;-85
2021/12/22 02:12:09;;;;;;;16.08;10.38;;;;;;;0.55;96.54;101595.34;4994600;28;20050;-85
2021/12/22 02:14:40;;;;;;;21.25;9.90;;;;;;;0.51;97.08;101595.75;4993503;28;20045;-84
2021/12/22 02:17:11;;;;;;;17.73;9.68;;;;;;;0.50;97.82;101594.06;4994766;28;20050;-84
2021/12/22 02:19:44;;;;;;;22.10;11.15;;;;;;;0.53;98.17;101596.38;4995308;28;20054;-84
2021/12/22 02:22:15;;;;;;;20.75;11.00;;;;;;;0.59;98.43;101594.78;4994777;28;20050;-85
2021/12/22 02:24:56;;;;;;;21.33;10.68;;;;;;;0.93;96.74;101614.06;4994722;28;20038;-85
2021/12/22 02:27:32;;;;;;;22.60;11.00;;;;;;;1.11;95.72;101599.34;4996494;28;20054;-85
2021/12/22 02:30:04;;;;;;;23.80;11.52;;;;;;;1.11;95.57;101594.75;4997913;28;20050;-84
2021/12/22 02:35:06;;;;;;;17.40;10.48;;;;;;;0.94;97.49;101600.38;4994596;28;20054;-85
2021/12/22 02:37:42;;;;;;;22.60;11.65;;;;;;;0.95;97.77;101603.94;4994367;28;20408;-84
2021/12/22 02:40:18;;;;;;;19.92;11.15;;;;;;;0.95;97.90;101595.84;4994143;28;20059;-84
2021/12/22 02:42:47;;;;;;;19.60;11.68;;;;;;;1.07;97.32;101604.25;4994379;28;20389;-84
2021/12/22 02:45:17;;;;;;;19.45;11.57;;;;;;;1.02;97.49;101606.72;4994154;28;20053;-84
2021/12/22 02:47:46;;;;;;;18.75;10.27;;;;;;;0.98;97.18;101600.84;4994143;28;20814;-84
2021/12/22 02:50:15;;;;;;;27.05;11.30;;;;;;;0.96;95.71;101602.06;4994057;28;20057;-84
2021/12/22 02:53:05;;;;;;;16.40;9.73;;;;;;;0.93;94.00;101598.72;4994050;28;20088;-84
2021/12/22 02:55:50;;;;;;;14.68;10.95;;;;;;;0.94;93.86;101592.31;4994017;28;20073;-84
2021/12/22 03:02:03;;;;;;;18.02;8.48;;;;;;;0.93;92.59;101603.28;4915232;29;20443;-84
2021/12/22 03:04:22;;;;;;;16.33;9.43;;;;;;;0.94;91.89;101604.97;4934081;29;20059;-84
2021/12/22 03:07:09;;;;;;;13.18;8.48;;;;;;;0.99;89.94;101605.22;4975068;28;20054;-84
2021/12/22 03:09:37;;;;;;;13.27;8.25;;;;;;;1.03;89.99;101606.50;4983025;28;20045;-84
2021/12/22 03:12:09;;;;;;;14.70;7.97;;;;;;;1.03;90.29;101609.19;4993632;28;20057;-84
2021/12/22 03:14:37;;;;;;;16.02;8.40;;;;;;;1.04;90.89;101610.84;4993795;28;20039;-84
2021/12/22 03:17:06;;;;;;;14.77;8.25;;;;;;;1.06;90.68;101597.19;4992371;28;20053;-84
2021/12/22 03:19:35;;;;;;;14.95;7.95;;;;;;;1.12;90.32;101606.41;4993705;28;20050;-84
2021/12/22 03:22:07;;;;;;;17.35;9.00;;;;;;;1.17;90.11;101599.38;4993363;28;20405;-84
2021/12/22 03:24:37;;;;;;;15.65;8.07;;;;;;;1.23;89.64;101608.59;4993677;28;20046;-84
2021/12/22 03:27:07;;;;;;;15.13;8.00;;;;;;;1.19;89.75;101618.06;4993512;28;20050;-84
2021/12/22 03:29:38;;;;;;;16.67;8.48;;;;;;;1.12;89.68;101604.50;4993242;28;20042;-84
2021/12/22 03:32:07;;;;;;;14.63;8.80;;;;;;;1.16;89.48;101613.06;4992196;28;20050;-84
2021/12/22 03:34:36;;;;;;;16.13;9.25;;;;;;;1.03;90.55;101609.19;4993305;28;20046;-84
2021/12/22 03:37:06;;;;;;;17.38;7.90;;;;;;;1.14;90.35;101610.56;4992358;28;20042;-84
2021/12/22 03:39:35;;;;;;;14.05;8.63;;;;;;;1.31;88.75;101608.44;4993441;28;20070;-84
2021/12/22 03:42:10;;;;;;;12.10;7.97;;;;;;;1.24;88.83;101610.25;4991597;28;20041;-84
2021/12/22 03:44:39;;;;;;;15.68;8.35;;;;;;;1.17;90.19;101603.97;4992539;28;20058;-84
2021/12/22 03:47:08;;;;;;;15.18;8.50;;;;;;;1.11;90.61;101607.44;4991592;28;20050;-84
2021/12/22 03:49:36;;;;;;;15.13;9.10;;;;;;;1.18;90.28;101611.03;4993326;28;20053;-84
2021/12/22 03:52:05;;;;;;;19.00;9.10;;;;;;;1.51;89.63;101615.88;4993149;28;20058;-84
2021/12/22 03:54:33;;;;;;;15.43;8.82;;;;;;;1.70;86.93;101618.94;4993428;28;20043;-84
2021/12/22 03:57:02;;;;;;;17.52;9.80;;;;;;;1.52;88.13;101609.47;4993463;28;20497;-84
2021/12/22 03:59:30;;;;;;;15.30;8.15;;;;;;;1.57;87.28;101619.69;4992137;28;20046;-84
2021/12/22 04:01:58;;;;;;;16.95;9.02;;;;;;;1.60;87.11;101616.59;4992909;28;20051;-84
2021/12/22 04:04:26;;;;;;;18.42;9.27;;;;;;;1.59;86.96;101615.78;4993529;28;20046;-84
2021/12/22 04:06:54;;;;;;;13.15;8.32;;;;;;;1.45;87.87;101622.91;4992531;28;20059;-84
2021/12/22 04:09:27;;;;;;;16.48;8.13;;;;;;;1.29;88.71;101615.06;4993048;28;20053;-84
2021/12/22 04:11:55;;;;;;;18.27;9.18;;;;;;;1.33;89.46;101627.16;4993140;28;20049;-84
2021/12/22 04:14:23;;;;;;;16.48;9.65;;;;;;;1.42;88.64;101615.19;4993583;28;20053;-84
2021/12/22 04:16:51;;;;;;;15.43;8.77;;;;;;;1.31;90.24;101616.53;4993110;28;20493;-84
2021/12/22 04:19:19;;;;;;;13.80;8.85;;;;;;;1.10;91.64;101619.22;4993113;28;20042;-84
2021/12/22 04:21:49;;;;;;;17.50;9.38;;;;;;;0.99;92.19;101624.09;4992614;28;20054;-84
2021/12/22 04:24:19;;;;;;;16.45;9.32;;;;;;;0.90;93.03;101619.84;4990218;28;20057;-84
2021/12/22 04:26:48;;;;;;;17.50;9.48;;;;;;;0.78;93.54;101633.78;4992806;28;20050;-84
2021/12/22 04:29:15;;;;;;;12.15;8.35;;;;;;;0.76;94.30;101629.59;4992785;28;20043;-84
2021/12/22 04:31:43;;;;;;;14.60;8.77;;;;;;;0.67;94.48;101634.28;4992649;28;20401;-84
2021/12/22 04:34:12;;;;;;;17.15;9.23;;;;;;;0.76;94.46;101630.47;4992898;28;20042;-84
2021/12/22 04:36:40;;;;;;;17.65;9.85;;;;;;;0.97;94.42;101630.69;4985860;28;20034;-84
2021/12/22 04:39:10;;;;;;;15.90;8.82;;;;;;;1.14;93.32;101636.69;4992616;28;20516;-84
2021/12/22 04:41:38;;;;;;;16.17;9.40;;;;;;;0.97;94.44;101630.69;4992651;28;20046;-84
2021/12/22 04:44:06;;;;;;;18.52;10.82;;;;;;;0.93;94.60;101635.63;4993161;28;20073;-84
2021/12/22 04:46:35;;;;;;;15.93;10.02;;;;;;;0.89;94.60;101637.03;4991200;28;20054;-84
2021/12/22 04:49:04;;;;;;;16.13;9.60;;;;;;;0.64;96.38;101635.47;4992841;28;20046;-84
2021/12/22 04:51:34;;;;;;;20.15;10.95;;;;;;;0.49;98.21;101640.88;4992778;28;20493;-84
2021/12/22 04:56:32;;;;;;;24.20;11.52;;;;;;;0.24;100.00;101638.47;4995548;28;20397;-83
2021/12/22 04:58:59;;;;;;;18.25;10.70;;;;;;;0.15;100.00;101639.59;4995864;28;20378;-84
2021/12/22 05:01:27;;;;;;;26.42;10.52;;;;;;;0.09;100.00;101645.66;4996147;28;20042;-84
2021/12/22 05:03:56;;;;;;;19.08;10.73;;;;;;;0.28;100.00;101641.63;4995607;28;20049;-84
2021/12/22 05:06:25;;;;;;;19.63;10.18;;;;;;;0.20;100.00;101642.53;4994006;28;20054;-84
2021/12/22 05:08:55;;;;;;;19.92;10.63;;;;;;;0.09;100.00;101651.91;4993538;28;20061;-84
2021/12/22 05:11:23;;;;;;;17.90;11.20;;;;;;;0.02;100.00;101650.13;4996271;28;20042;-84
2021/12/22 05:13:51;;;;;;;20.55;11.15;;;;;;;-0.02;100.00;101653.19;4995101;28;20050;-84
2021/12/22 05:16:19;;;;;;;21.50;11.95;;;;;;;-0.12;100.00;101644.53;4994216;28;20487;-84
2021/12/22 05:21:21;;;;;;;21.33;11.88;;;;;;;-0.19;100.00;101648.97;4994025;28;20488;-84
2021/12/22 05:23:50;;;;;;;22.08;11.85;;;;;;;-0.14;100.00;101651.97;4995612;28;20058;-82
2021/12/22 05:26:18;;;;;;;24.08;11.38;;;;;;;-0.20;100.00;101652.69;4994228;28;20054;-83
2021/12/22 05:28:46;;;;;;;25.85;11.82;;;;;;;-0.26;100.00;101653.41;4994404;28;20050;-82
2021/12/22 05:31:15;;;;;;;21.50;10.70;;;;;;;-0.31;100.00;101657.47;4993925;28;20034;-81
2021/12/22 05:33:43;;;;;;;18.98;11.90;;;;;;;-0.28;100.00;101662.47;4991664;28;20069;-84
2021/12/22 05:36:11;;;;;;;22.35;11.93;;;;;;;-0.17;100.00;101665.75;4992389;28;20046;-82
2021/12/22 05:38:39;;;;;;;28.73;12.93;;;;;;;-0.24;100.00;101664.81;4995009;28;20481;-82
2021/12/22 05:41:07;;;;;;;23.40;11.73;;;;;;;-0.31;100.00;101670.06;4995528;28;20046;-82
2021/12/22 05:43:35;;;;;;;22.77;11.75;;;;;;;-0.38;100.00;101667.28;4993632;28;20046;-82
2021/12/22 05:46:06;;;;;;;20.52;11.70;;;;;;;-0.44;100.00;101668.00;4991711;28;20042;-82
2021/12/22 05:48:34;;;;;;;23.33;12.05;;;;;;;-0.32;100.00;101671.09;4993692;28;20038;-81
2021/12/22 05:51:02;;;;;;;18.35;10.95;;;;;;;-0.42;100.00;101674.03;4994327;28;20061;-82
2021/12/22 05:53:31;;;;;;;22.30;11.70;;;;;;;-0.49;100.00;101686.53;4994048;28;20050;-82
2021/12/22 05:55:59;;;;;;;18.75;10.93;;;;;;;-0.56;100.00;101681.00;4994195;28;20046;-81
2021/12/22 05:58:27;;;;;;;17.27;10.52;;;;;;;-0.59;100.00;101687.59;4991945;28;20073;-81
2021/12/22 06:00:56;;;;;;;18.70;10.55;;;;;;;-0.60;100.00;101679.69;4993426;28;20046;-81
2021/12/22 06:03:24;;;;;;;22.98;12.05;;;;;;;-0.42;100.00;101691.03;4994459;28;20076;-81
2021/12/22 06:05:52;;;;;;;24.38;11.88;;;;;;;-0.16;100.00;101699.72;4993263;28;20160;-83
2021/12/22 06:08:22;;;;;;;20.85;11.35;;;;;;;-0.12;100.00;101703.72;4987143;28;20054;-82
2021/12/22 06:10:50;;;;;;;20.38;10.82;;;;;;;-0.24;100.00;101705.19;4994546;28;20042;-82
2021/12/22 06:13:18;;;;;;;21.98;11.13;;;;;;;-0.33;100.00;101709.78;4994780;28;20050;-82
2021/12/22 06:15:46;;;;;;;20.45;11.82;;;;;;;-0.31;100.00;101711.28;4994345;28;20069;-81
2021/12/22 06:18:14;;;;;;;23.80;12.18;;;;;;;-0.22;100.00;101724.66;4990337;28;20039;-81
2021/12/22 06:20:42;;;;;;;19.95;10.98;;;;;;;-0.25;100.00;101725.03;4992378;28;20057;-81
2021/12/22 06:23:11;;;;;;;18.95;10.65;;;;;;;-0.34;100.00;101719.69;4992803;28;20061;-82
2021/12/22 06:25:39;;;;;;;23.13;11.50;;;;;;;-0.45;100.00;101725.47;4991568;28;20053;-82
2021/12/22 06:28:07;;;;;;;24.35;12.52;;;;;;;-0.26;100.00;101712.59;4991357;28;20043;-82
2021/12/22 06:30:35;;;;;;;19.35;11.15;;;;;;;-0.34;100.00;101708.94;4993156;28;20047;-81
2021/12/22 06:33:03;;;;;;;19.50;11.27;;;;;;;-0.36;100.00;101713.66;4993740;28;20042;-82
2021/12/22 06:35:31;;;;;;;22.17;11.63;;;;;;;-0.35;100.00;101719.91;4989735;28;20047;-82
2021/12/22 06:37:59;;;;;;;19.98;11.70;;;;;;;-0.39;100.00;101719.38;4977665;28;20058;-82
2021/12/22 06:40:27;;;;;;;21.55;11.23;;;;;;;-0.06;100.00;101716.47;4980644;28;20042;-89
2021/12/22 06:42:55;;;;;;;23.13;11.98;;;;;;;0.12;100.00;101712.63;4964066;28;20054;-82
2021/12/22 06:45:24;;;;;;;19.65;10.88;;;;;;;-0.05;100.00;101720.81;4993551;28;20473;-82
2021/12/22 06:47:52;;;;;;;19.55;11.35;;;;;;;-0.20;100.00;101717.25;4992508;28;20046;-82
2021/12/22 06:50:20;;;;;;;23.80;12.20;;;;;;;-0.31;100.00;101718.50;4994710;28;20042;-82
2021/12/22 06:52:48;;;;;;;23.65;11.75;;;;;;;-0.29;100.00;101728.06;4992210;28;20066;-82
2021/12/22 06:55:16;;;;;;;20.25;11.73;;;;;;;-0.33;100.00;101724.09;4993415;28;20053;-81
2021/12/22 06:57:45;;;;;;;22.85;12.13;;;;;;;-0.38;100.00;101729.16;4993314;28;20034;-82
2021/12/22 07:00:13;;;;;;;17.55;10.02;;;;;;;-0.43;100.00;101720.78;4992980;28;20046;-82
2021/12/22 07:02:41;;;;;;;21.52;11.35;;;;;;;-0.45;100.00;101728.16;4993391;28;20053;-82
2021/12/22 07:05:19;;;;;;;24.98;11.13;;;;;;;-0.32;100.00;101735.66;4992205;28;20413;-82
2021/12/22 07:07:47;;;;;;;21.08;11.68;;;;;;;-0.31;100.00;101731.94;4992513;28;20034;-82
2021/12/22 07:10:16;;;;;;;20.65;11.27;;;;;;;-0.22;100.00;101740.81;4993511;28;20411;-82
2021/12/22 07:12:46;;;;;;;20.23;10.88;;;;;;;-0.31;100.00;101743.56;4992310;28;20497;-82
2021/12/22 07:15:16;;;;;;;22.98;11.20;;;;;;;-0.37;100.00;101740.72;4993182;28;20400;-82
2021/12/22 07:17:48;;;;;;;21.52;10.90;;;;;;;-0.43;100.00;101743.13;4994260;28;20038;-82
2021/12/22 07:20:17;;;;;;;24.00;11.63;;;;;;;-0.45;100.00;101752.38;4993489;28;20053;-82
2021/12/22 07:22:46;;;;;;;26.67;13.13;;;;;;;-0.44;100.00;101754.06;4993500;28;20035;-81
2021/12/22 07:25:18;;;;;;;26.95;12.93;;;;;;;-0.38;100.00;101757.91;4993865;28;20655;-81
2021/12/22 07:27:46;;;;;;;25.83;12.90;;;;;;;-0.29;100.00;101763.03;4992138;28;20046;-82
2021/12/22 07:30:14;;;;;;;23.30;12.50;;;;;;;-0.23;100.00;101768.72;4994055;28;20039;-82
2021/12/22 07:32:42;;;;;;;22.23;11.75;;;;;;;-0.18;100.00;101766.34;4993844;28;20374;-82
2021/12/22 07:35:32;;;;;;;21.80;12.68;;;;;;;-0.07;100.00;101771.31;4993956;28;20053;-82
2021/12/22 07:38:11;;;;;;;24.38;11.90;;;;;;;0.07;100.00;101771.53;4993099;28;20050;-82
2021/12/22 07:40:39;;;;;;;25.88;13.60;;;;;;;0.17;100.00;101780.22;4993169;28;20045;-82
2021/12/22 07:43:07;;;;;;;21.42;12.05;;;;;;;0.25;100.00;101774.75;4993203;28;20050;-82
2021/12/22 07:45:35;;;;;;;24.75;13.30;;;;;;;0.37;100.00;101785.09;4993538;28;20058;-82
2021/12/22 07:48:03;;;;;;;26.80;13.75;;;;;;;0.48;100.00;101779.28;4993278;28;20046;-82
2021/12/22 07:50:31;;;;;;;25.02;13.73;;;;;;;0.81;100.00;101791.59;4992867;28;20038;-82
2021/12/22 07:52:59;;;;;;;26.08;13.82;;;;;;;0.95;100.00;101784.53;4993059;28;20422;-82
2021/12/22 07:55:27;;;;;;;24.05;13.27;;;;;;;1.16;100.00;101785.63;4992772;28;20038;-82
2021/12/22 07:57:56;;;;;;;27.38;14.23;;;;;;;1.25;98.77;101786.38;4992872;28;20057;-82
2021/12/22 08:00:24;;;;;;;25.20;13.95;;;;;;;1.47;98.07;101792.69;4992608;28;20058;-82
2021/12/22 08:02:51;;;;;;;28.50;15.25;;;;;;;1.41;97.76;101793.44;4992861;28;20069;-82
2021/12/22 08:05:39;;;;;;;26.75;13.18;;;;;;;1.42;97.79;101790.53;4992307;28;20047;-83
2021/12/22 08:08:07;;;;;;;25.75;13.40;;;;;;;1.34;98.35;101788.78;4993240;28;20049;-82
2021/12/22 08:10:36;;;;;;;24.77;14.23;;;;;;;1.39;97.69;101800.84;4991099;28;20050;-82
2021/12/22 08:13:04;;;;;;;27.30;13.95;;;;;;;1.42;98.02;101806.72;4992597;28;20049;-82
2021/12/22 08:15:31;;;;;;;23.83;13.93;;;;;;;1.44;97.57;101809.22;4991140;28;20054;-83
2021/12/22 08:17:59;;;;;;;27.83;15.63;;;;;;;1.59;97.76;101818.16;4992664;28;20043;-82
2021/12/22 08:20:27;;;;;;;27.77;14.73;;;;;;;1.50;97.02;101813.06;4992871;28;20482;-82
2021/12/22 08:22:55;;;;;;;27.88;15.32;;;;;;;1.73;96.69;101818.28;4979253;28;20053;-82
2021/12/22 08:25:23;;;;;;;32.42;15.30;;;;;;;1.87;95.60;101824.69;4992173;28;20043;-82
2021/12/22 08:27:52;;;;;;;26.73;15.05;;;;;;;1.82;95.64;101817.16;4993850;28;20050;-82
2021/12/22 08:30:20;;;;;;;27.70;14.80;;;;;;;2.10;95.41;101821.81;4992215;28;20053;-82
2021/12/22 08:32:48;;;;;;;28.55;15.18;;;;;;;2.04;92.98;101806.38;4995879;28;20486;-83
2021/12/22 08:35:17;;;;;;;29.92;16.02;;;;;;;2.09;93.22;101808.47;4995072;28;20051;-84
2021/12/22 08:40:51;;;;;;;38.80;19.75;;;;;;;2.49;91.87;101821.53;4926156;29;20434;-82
2021/12/22 08:43:19;;;;;;;25.48;15.35;;;;;;;2.66;89.98;101817.53;4935859;29;20063;-83
2021/12/22 08:45:47;;;;;;;23.55;14.30;;;;;;;2.71;89.70;101818.78;4964032;28;20054;-82
2021/12/22 08:48:15;;;;;;;30.75;16.83;;;;;;;2.72;90.20;101815.03;4995698;28;20054;-82
2021/12/22 08:50:43;;;;;;;26.67;15.68;;;;;;;2.74;90.08;101824.63;4995682;28;20401;-82
2021/12/22 08:53:11;;;;;;;26.55;14.63;;;;;;;2.98;89.16;101817.09;4995799;28;20047;-83
2021/12/22 08:55:39;;;;;;;33.53;16.02;;;;;;;3.25;87.08;101829.94;4994142;28;20540;-83
2021/12/22 08:58:07;;;;;;;27.40;14.77;;;;;;;3.43;87.07;101835.66;4994445;28;20516;-83
2021/12/22 09:00:37;;;;;;;31.35;17.42;;;;;;;3.31;86.80;101837.25;4995483;28;20499;-83
2021/12/22 09:03:05;;;;;;;28.60;14.25;;;;;;;3.44;87.54;101837.34;4995589;28;20047;-83
2021/12/22 09:05:33;;;;;;;27.40;16.17;;;;;;;3.76;86.25;101834.13;4995202;28;20511;-83
2021/12/22 09:08:02;;;;;;;29.70;15.15;;;;;;;3.99;85.55;101831.09;4995337;28;20401;-84
2021/12/22 09:10:30;;;;;;;26.83;16.15;;;;;;;4.33;82.92;101843.84;4995378;28;20489;-80
2021/12/22 09:12:58;;;;;;;30.35;15.45;;;;;;;4.50;83.33;101839.69;5010466;28;20061;-79
2021/12/22 09:15:25;;;;;;;25.92;15.40;;;;;;;4.61;82.61;101843.69;5014796;28;20080;-80
2021/12/22 09:17:53;;;;;;;26.45;15.77;;;;;;;4.62;81.52;101844.50;4997247;28;20046;-75
2021/12/22 09:20:22;;;;;;;27.83;15.90;;;;;;;4.70;81.47;101842.41;5014714;28;20057;-79
2021/12/22 09:22:50;;;;;;;25.92;15.55;;;;;;;4.92;80.44;101853.03;5013085;28;20046;-78
2021/12/22 09:25:18;;;;;;;26.05;13.90;;;;;;;4.91;80.19;101850.53;5014696;28;20041;-79
2021/12/22 09:27:46;;;;;;;24.40;14.55;;;;;;;5.11;80.17;101854.06;5013684;28;20049;-77
2021/12/22 09:30:14;;;;;;;29.17;16.05;;;;;;;5.23;80.25;101856.94;5009160;28;20050;-77
2021/12/22 09:32:42;;;;;;;23.98;14.63;;;;;;;5.25;79.08;101870.31;5005867;28;20405;-77
2021/12/22 09:35:10;;;;;;;25.67;14.68;;;;;;;5.47;79.59;101861.91;5014574;28;20057;-77
2021/12/22 09:37:38;;;;;;;25.48;15.27;;;;;;;5.79;78.62;101867.41;5014739;28;20038;-78
2021/12/22 09:40:07;;;;;;;24.75;15.48;;;;;;;6.20;75.72;101870.78;5014602;28;20397;-78
2021/12/22 09:42:35;;;;;;;24.52;14.68;;;;;;;6.47;74.45;101870.63;5013906;28;20050;-77
2021/12/22 09:45:04;;;;;;;22.30;15.07;;;;;;;6.53;74.15;101875.16;5014580;28;20064;-76
2021/12/22 09:47:47;;;;;;;24.67;15.10;;;;;;;6.52;73.46;101867.22;5014537;28;20046;-76
2021/12/22 09:50:24;;;;;;;27.48;14.23;;;;;;;6.75;73.97;101871.25;5014547;28;20053;-77
2021/12/22 09:52:53;;;;;;;23.30;14.32;;;;;;;6.82;71.07;101877.44;5014394;28;20045;-78
2021/12/22 09:55:21;;;;;;;24.65;14.00;;;;;;;6.72;71.51;101873.34;5014305;28;20054;-78
2021/12/22 09:57:49;;;;;;;24.30;13.63;;;;;;;6.85;72.20;101875.13;5013987;28;20041;-83
2021/12/22 10:00:17;;;;;;;21.08;13.93;;;;;;;6.84;71.47;101873.44;5014037;28;20049;-84
2021/12/22 10:02:45;;;;;;;21.70;13.27;;;;;;;6.94;70.27;101875.66;5013805;28;20113;-85
2021/12/22 10:05:13;;;;;;;20.20;12.43;;;;;;;6.86;69.54;101875.97;5014357;28;20396;-86
2021/12/22 10:07:44;;;;;;;21.65;12.88;;;;;;;6.86;70.34;101863.16;5000536;28;20050;-85
2021/12/22 10:10:14;;;;;;;22.00;13.30;;;;;;;7.07;70.58;101865.72;5012958;28;20041;-86
2021/12/22 10:12:44;;;;;;;23.73;13.30;;;;;;;7.13;70.06;101864.81;5014294;28;20054;-86
2021/12/22 10:15:12;;;;;;;19.67;11.68;;;;;;;7.16;69.41;101858.94;5014214;28;20045;-86
2021/12/22 10:17:44;;;;;;;19.17;12.43;;;;;;;7.31;68.40;101855.00;5014470;28;20592;-87
2021/12/22 10:20:16;;;;;;;19.80;11.77;;;;;;;7.01;68.39;101853.84;5014053;28;20400;-87
2021/12/22 10:22:47;;;;;;;19.73;11.65;;;;;;;7.24;67.88;101863.25;5014099;28;20054;-86
2021/12/22 10:25:18;;;;;;;22.30;12.15;;;;;;;7.47;68.09;101857.13;5014069;28;20053;-86
2021/12/22 10:28:01;;;;;;;18.85;12.25;;;;;;;7.46;67.34;101860.06;5002320;28;20047;-86
2021/12/22 10:30:39;;;;;;;26.60;12.13;;;;;;;7.38;67.05;101853.06;4983430;28;20057;-86
2021/12/22 10:33:14;;;;;;;18.08;11.93;;;;;;;7.56;68.10;101859.53;4994125;28;20038;-86
2021/12/22 10:35:45;;;;;;;22.30;12.70;;;;;;;7.72;67.01;101847.19;4994599;28;20047;-86
2021/12/22 10:38:16;;;;;;;20.65;12.10;;;;;;;7.59;66.91;101848.19;4995122;28;20496;-85
2021/12/22 10:40:48;;;;;;;17.20;10.90;;;;;;;7.75;66.69;101842.13;4993894;28;20042;-79
2021/12/22 10:43:25;;;;;;;19.73;12.30;;;;;;;8.20;66.19;101837.28;4993501;28;20046;-80
2021/12/22 10:45:56;;;;;;;19.50;11.60;;;;;;;7.77;65.13;101839.16;4993842;28;20389;-78
2021/12/22 10:51:28;;;;;;;20.35;13.02;;;;;;;7.80;66.15;101834.09;4993324;28;20386;-79
2021/12/22 10:53:58;;;;;;;22.95;11.77;;;;;;;7.90;65.79;101835.41;4992573;28;20046;-78
2021/12/22 10:56:26;;;;;;;22.95;12.95;;;;;;;7.70;66.90;101833.78;4993461;28;20401;-79
2021/12/22 10:59:05;;;;;;;18.02;12.05;;;;;;;7.66;66.50;101827.13;4993222;28;20053;-79
2021/12/22 11:02:06;;;;;;;19.65;11.60;;;;;;;8.12;64.00;101830.25;4994233;28;20073;-79
2021/12/22 11:04:35;;;;;;;20.27;11.45;;;;;;;8.12;64.46;101832.19;4994358;28;20057;-79
2021/12/22 11:07:21;;;;;;;25.58;15.85;;;;;;;8.25;65.15;101833.88;4994096;28;20066;-78
2021/12/22 11:09:51;;;;;;;18.65;11.77;;;;;;;8.54;63.45;101839.53;4992936;28;20046;-79
2021/12/22 11:12:35;;;;;;;19.15;12.13;;;;;;;8.36;63.43;101829.50;4992959;28;20050;-79
2021/12/22 11:15:04;;;;;;;18.63;11.50;;;;;;;8.35;62.96;101825.94;4992929;28;20061;-80
2021/12/22 11:17:37;;;;;;;20.08;12.20;;;;;;;8.09;64.78;101821.72;4992720;28;20050;-79
2021/12/22 11:20:06;;;;;;;20.92;11.90;;;;;;;8.12;64.10;101824.81;4993081;28;20045;-79
2021/12/22 11:22:53;;;;;;;24.35;12.75;;;;;;;8.32;62.87;101829.16;4991012;28;20051;-79
2021/12/22 11:25:21;;;;;;;22.00;12.70;;;;;;;7.83;65.65;101824.63;4991349;28;20058;-80
2021/12/22 11:27:51;;;;;;;19.75;12.15;;;;;;;7.91;64.73;101820.72;4992162;28;20035;-79
2021/12/22 11:30:25;;;;;;;21.45;12.73;;;;;;;7.83;64.42;101821.03;4991911;28;20489;-79
2021/12/22 11:32:57;;;;;;;20.40;12.70;;;;;;;7.88;63.94;101815.75;4991103;28;20047;-78
2021/12/22 11:35:25;;;;;;;20.27;12.43;;;;;;;7.78;65.96;101808.94;4991906;28;20058;-78
2021/12/22 11:37:54;;;;;;;20.02;12.13;;;;;;;7.80;66.35;101808.72;4992247;28;20490;-78
2021/12/22 11:40:24;;;;;;;20.63;12.65;;;;;;;7.97;65.30;101817.06;4992523;28;20050;-78
2021/12/22 11:42:52;;;;;;;20.50;12.57;;;;;;;7.89;64.75;101809.22;4993179;28;20413;-78
2021/12/22 11:45:22;;;;;;;22.58;12.52;;;;;;;7.88;65.43;101807.56;4992183;28;20038;-78
2021/12/22 11:47:53;;;;;;;21.88;12.77;;;;;;;7.79;65.42;101807.88;4992443;28;20046;-78
2021/12/22 11:50:30;;;;;;;21.67;13.15;;;;;;;7.83;65.74;101807.41;4992222;28;20039;-78
2021/12/22 11:53:05;;;;;;;27.40;13.90;;;;;;;7.91;65.46;101804.34;4992076;28;20073;-79
2021/12/22 11:55:43;;;;;;;24.10;13.27;;;;;;;7.99;65.15;101809.50;4991383;28;20378;-78
2021/12/22 11:58:15;;;;;;;21.45;12.82;;;;;;;8.06;65.79;101798.47;4990945;28;20054;-80